Airfield :







YOU CAN JOIN US ON...

 
LOGIN :

Register | Disclaimer

   EN    FR    IT 

 









Legend :    VFR   Marginal VFR   IFR   Intensive IFR   Very Intensive IFR
Visi :
Ceiling :
>= 8 km
>= 3000ft
5 to 8 km
1000 to 3000 ft
1500m to 5 km
500 to 1000 ft
800 to 1500m
200 to 500 ft
< 800m
< 200 ft
Symbols :   Thunderstorms  Fog  Heavy snow  Heavy precipitations  Wind > 20 kt







- Airport Elevation : 335 ft
- IATA code : BTV


KBTV - Burlington International

CURRENT METAR :
  • 222354Z 28006KT 10SM FEW085 FEW160 SCT250 22/11 A2985 RMK AO2 SLP108 T02220111 10272 20222 53005

EXPIRED METARs :
  • 222254Z 27006KT 10SM FEW085 SCT160 BKN250 23/11 A2985 RMK AO2 SLP106 T02280106
  • 222154Z 29009KT 10SM FEW065 BKN220 24/09 A2985 RMK AO2 SLP105 T02390094

TAF KBTV
Valid from the 23 at 00:00 until the 24 at 00:00 UTC


222342Z 2300/2324 27006KT P6SM SCT060 BKN250
FM231300 33009KT P6SM SCT040
No reported NOTAMs for that airfield.



MET'MAP, your aeronautical weather chart ! - Copyright ORBIFLY December 2007 - Disclaimer

ORBIFLY MET'MAP TEAM :

Programming & Development : Alexandra Zaïnal
Concept & Development : Baudouin d'Aumeries
Co-Development & Prog : Marc-Olivier Méhu
Technical & hardware support : Manuel Goepfert

Contact : metmap@orbifly.com




SOURCES & CREDITS :

   NOAA